Terminal Aerodrome Forecast
Issued by NWS Brownsville, TX

Home | Current Version | Previous Version | Text Only | Print | Product List | Glossary On
Versions: 1 2 3 4 5 6 7 8 9 10 11 12 13 14 15 16 17 18 19 20 21 22
000
FTUS44 KBRO 051400 AAA
TAFHRL
TAF AMD
KHRL 051400Z 0514/0612 34023G29KT P6SM -RA BKN015 OVC021
     FM060000 36015G20KT 6SM -RA BR OVC015
     FM060500 34011KT P6SM -DZ OVC020 PROB30 0608/0612 5SM -RA BR
      OVC015=

USA.gov is the U.S. government's official web portal to all federal, state and local government web resources and services.